Time;durP1;ratioP1;P1;durP2;ratioP2;P2;SDS_P1;SDS_P2;PMS_P1;PMS_P2;Temp;Humidity;BMP_temperature;BMP_pressure;BME280_temperature;BME280_humidity;BME280_pressure;Samples;Min_cycle;Max_cycle;Signal;HPM_P1;HPM_P2
2022/04/24 00:01:21;;;;;;;1999.90;999.90;;;;;;;;;;5078810;28;20302;-73
2022/04/24 00:03:49;;;;;;;1999.90;999.90;;;;;;;;;;5082519;28;20330;-74
2022/04/24 00:06:23;;;;;;;1999.90;999.90;;;;;;;;;;5092659;28;20230;-74
2022/04/24 00:08:51;;;;;;;1999.90;999.90;;;;;;;;;;5084920;28;20266;-73
2022/04/24 00:11:20;;;;;;;1999.90;999.90;;;;;;;;;;5086484;28;20232;-74
2022/04/24 00:13:47;;;;;;;1999.90;999.90;;;;;;;;;;5080123;28;20258;-74
2022/04/24 00:16:26;;;;;;;1999.90;999.90;;;;;;;;;;5098675;28;20240;-74
2022/04/24 00:18:53;;;;;;;1999.90;999.90;;;;;;;;;;5082310;28;20314;-73
2022/04/24 00:21:21;;;;;;;1999.90;999.90;;;;;;;;;;5082027;28;20412;-74
2022/04/24 00:23:50;;;;;;;1999.90;999.90;;;;;;;;;;5094364;28;21013;-74
2022/04/24 00:26:17;;;;;;;1999.90;999.90;;;;;;;;;;5085858;28;20737;-74
2022/04/24 00:28:45;;;;;;;1999.90;999.90;;;;;;;;;;5083526;28;20703;-74
2022/04/24 00:31:12;;;;;;;1999.90;999.90;;;;;;;;;;5082640;28;20232;-74
2022/04/24 00:33:40;;;;;;;1999.90;999.90;;;;;;;;;;5087350;27;20266;-73
2022/04/24 00:36:08;;;;;;;1999.90;999.90;;;;;;;;;;5077046;28;20246;-73
2022/04/24 00:38:36;;;;;;;1999.90;999.90;;;;;;;;;;5088544;27;20227;-74
2022/04/24 00:41:05;;;;;;;1999.90;999.90;;;;;;;;;;5086734;28;20312;-73
2022/04/24 00:43:32;;;;;;;1999.90;999.90;;;;;;;;;;5089031;28;20760;-73
2022/04/24 00:46:26;;;;;;;1999.90;999.90;;;;;;;;;;5090340;28;20286;-73
2022/04/24 00:48:53;;;;;;;1999.90;999.90;;;;;;;;;;5086239;28;20983;-74
2022/04/24 00:51:21;;;;;;;1999.90;999.90;;;;;;;;;;5081102;28;22338;-74
2022/04/24 00:53:48;;;;;;;1999.90;999.90;;;;;;;;;;5095924;28;20318;-74
2022/04/24 00:56:18;;;;;;;1999.90;999.90;;;;;;;;;;5121959;27;20231;-74
2022/04/24 00:58:46;;;;;;;1999.90;999.90;;;;;;;;;;5083980;28;20231;-74
2022/04/24 01:01:13;;;;;;;1999.90;999.90;;;;;;;;;;5085878;28;20251;-73
2022/04/24 01:03:41;;;;;;;1999.90;999.90;;;;;;;;;;5091333;28;20283;-73
2022/04/24 01:06:09;;;;;;;1999.90;999.90;;;;;;;;;;5088581;28;20234;-73
2022/04/24 01:08:36;;;;;;;1999.90;999.90;;;;;;;;;;5084313;28;20227;-73
2022/04/24 01:11:05;;;;;;;1999.90;999.90;;;;;;;;;;5086389;28;20231;-74
2022/04/24 01:13:34;;;;;;;1999.90;999.90;;;;;;;;;;5086648;28;20235;-74
2022/04/24 01:16:02;;;;;;;1999.90;999.90;;;;;;;;;;5082473;28;20350;-74
2022/04/24 01:18:29;;;;;;;1999.90;999.90;;;;;;;;;;5080856;28;20744;-74
2022/04/24 01:21:07;;;;;;;1999.90;999.90;;;;;;;;;;5090635;28;20226;-74
2022/04/24 01:23:35;;;;;;;1999.90;999.90;;;;;;;;;;5089223;28;20224;-74
2022/04/24 01:26:02;;;;;;;1999.90;999.90;;;;;;;;;;5079913;28;20304;-74
2022/04/24 01:28:30;;;;;;;1999.90;999.90;;;;;;;;;;5093504;28;21460;-74
2022/04/24 01:30:57;;;;;;;1999.90;999.90;;;;;;;;;;5078569;28;20227;-74
2022/04/24 01:33:26;;;;;;;1999.90;999.90;;;;;;;;;;5086005;28;20224;-74
2022/04/24 01:35:53;;;;;;;1999.90;999.90;;;;;;;;;;5082583;28;20316;-73
2022/04/24 01:38:22;;;;;;;1999.90;999.90;;;;;;;;;;5087626;28;20239;-74
2022/04/24 01:40:50;;;;;;;1999.90;999.90;;;;;;;;;;5081947;28;20288;-74
2022/04/24 01:43:17;;;;;;;1999.90;999.90;;;;;;;;;;5087153;28;20768;-74
2022/04/24 01:45:45;;;;;;;1999.90;999.90;;;;;;;;;;5087925;28;20302;-74
2022/04/24 01:48:12;;;;;;;1999.90;999.90;;;;;;;;;;5092289;28;20238;-74
2022/04/24 01:50:40;;;;;;;1999.90;999.90;;;;;;;;;;5081784;28;20792;-74
2022/04/24 01:53:08;;;;;;;1999.90;999.90;;;;;;;;;;5084709;28;20223;-75
2022/04/24 01:55:36;;;;;;;1999.90;999.90;;;;;;;;;;5081397;28;20239;-74
2022/04/24 01:58:04;;;;;;;1999.90;999.90;;;;;;;;;;5093064;28;20395;-74
2022/04/24 02:00:32;;;;;;;1999.90;999.90;;;;;;;;;;5082514;28;20231;-73
2022/04/24 02:02:59;;;;;;;1999.90;999.90;;;;;;;;;;5087834;28;20242;-72
2022/04/24 02:05:27;;;;;;;1999.90;999.90;;;;;;;;;;5084531;28;20254;-73
2022/04/24 02:07:55;;;;;;;1999.90;999.90;;;;;;;;;;5091385;28;21046;-73
2022/04/24 02:10:22;;;;;;;1999.90;999.90;;;;;;;;;;5084221;28;20224;-73
2022/04/24 02:12:51;;;;;;;1999.90;999.90;;;;;;;;;;5076930;28;20311;-74
2022/04/24 02:15:19;;;;;;;1999.90;999.90;;;;;;;;;;5120379;27;20301;-74
2022/04/24 02:17:46;;;;;;;1999.90;999.90;;;;;;;;;;5084638;27;20236;-75
2022/04/24 02:20:14;;;;;;;1999.90;999.90;;;;;;;;;;5087404;28;20304;-72
2022/04/24 02:22:41;;;;;;;1999.90;999.90;;;;;;;;;;5078408;28;20223;-72
2022/04/24 02:25:09;;;;;;;1999.90;999.90;;;;;;;;;;5088258;28;20243;-72
2022/04/24 02:27:36;;;;;;;1999.90;999.90;;;;;;;;;;5085072;28;20227;-74
2022/04/24 02:30:06;;;;;;;1999.90;999.90;;;;;;;;;;5084992;28;20227;-75
2022/04/24 02:32:33;;;;;;;1999.90;999.90;;;;;;;;;;5088278;28;20361;-75
2022/04/24 02:35:01;;;;;;;1999.90;999.90;;;;;;;;;;5090147;28;20231;-72
2022/04/24 02:37:31;;;;;;;1999.90;999.90;;;;;;;;;;5089296;28;20231;-74
2022/04/24 02:39:59;;;;;;;1999.90;999.90;;;;;;;;;;5093599;28;20227;-74
2022/04/24 02:42:26;;;;;;;1999.90;999.90;;;;;;;;;;5078614;28;20298;-74
2022/04/24 02:44:54;;;;;;;1999.90;999.90;;;;;;;;;;5087171;28;20304;-74
2022/04/24 02:47:23;;;;;;;1999.90;999.90;;;;;;;;;;5082431;28;21018;-74
2022/04/24 02:49:50;;;;;;;1999.90;999.90;;;;;;;;;;5082892;28;20224;-73
2022/04/24 02:52:18;;;;;;;1999.90;999.90;;;;;;;;;;5084143;28;20231;-73
2022/04/24 02:54:45;;;;;;;1999.90;999.90;;;;;;;;;;5084692;28;20231;-73
2022/04/24 02:57:13;;;;;;;1999.90;999.90;;;;;;;;;;5080805;28;20729;-72
2022/04/24 02:59:42;;;;;;;1999.90;999.90;;;;;;;;;;5084225;28;20231;-74
2022/04/24 03:02:10;;;;;;;1999.90;999.90;;;;;;;;;;5085787;28;20309;-74
2022/04/24 03:04:39;;;;;;;1999.90;999.90;;;;;;;;;;5085275;28;20736;-74
2022/04/24 03:07:07;;;;;;;1999.90;999.90;;;;;;;;;;5082469;28;20237;-73
2022/04/24 03:09:35;;;;;;;1999.90;999.90;;;;;;;;;;5081052;28;20723;-73
2022/04/24 03:12:02;;;;;;;1999.90;999.90;;;;;;;;;;5082491;28;20231;-74
2022/04/24 03:14:30;;;;;;;1999.90;999.90;;;;;;;;;;5079134;27;20232;-74
2022/04/24 03:16:57;;;;;;;1999.90;999.90;;;;;;;;;;5083952;28;20261;-74
2022/04/24 03:19:25;;;;;;;1999.90;999.90;;;;;;;;;;5078100;28;20289;-74
2022/04/24 03:21:54;;;;;;;1999.90;999.90;;;;;;;;;;5088273;28;20250;-73
2022/04/24 03:24:22;;;;;;;1999.90;999.90;;;;;;;;;;5080933;28;20248;-73
2022/04/24 03:26:50;;;;;;;1999.90;999.90;;;;;;;;;;5080035;28;20334;-74
2022/04/24 03:29:18;;;;;;;1999.90;999.90;;;;;;;;;;5087012;28;20224;-74
2022/04/24 03:31:45;;;;;;;1999.90;999.90;;;;;;;;;;5087757;28;20306;-74
2022/04/24 03:34:13;;;;;;;1999.90;999.90;;;;;;;;;;5081504;28;20231;-74
2022/04/24 03:36:41;;;;;;;1999.90;999.90;;;;;;;;;;5080378;28;20242;-74
2022/04/24 03:39:09;;;;;;;1999.90;999.90;;;;;;;;;;5087699;28;20314;-73
2022/04/24 03:41:37;;;;;;;1999.90;999.90;;;;;;;;;;5070765;28;20303;-74
2022/04/24 03:44:05;;;;;;;1999.90;999.90;;;;;;;;;;5084832;28;20322;-73
2022/04/24 03:46:32;;;;;;;1999.90;999.90;;;;;;;;;;5074614;28;20320;-74
2022/04/24 03:49:00;;;;;;;1999.90;999.90;;;;;;;;;;5081314;28;20238;-73
2022/04/24 03:51:29;;;;;;;1999.90;999.90;;;;;;;;;;5083143;28;20258;-73
2022/04/24 03:53:57;;;;;;;1999.90;999.90;;;;;;;;;;5076238;28;20707;-73
2022/04/24 03:56:26;;;;;;;1999.90;999.90;;;;;;;;;;5078124;28;20232;-73
2022/04/24 03:58:53;;;;;;;1999.90;999.90;;;;;;;;;;5078640;28;20228;-73
2022/04/24 04:01:21;;;;;;;1999.90;999.90;;;;;;;;;;5087398;28;20230;-74
2022/04/24 04:03:48;;;;;;;1999.90;999.90;;;;;;;;;;5094642;28;20227;-74
2022/04/24 04:06:16;;;;;;;1999.90;999.90;;;;;;;;;;5087001;27;20733;-73
2022/04/24 04:08:44;;;;;;;1999.90;999.90;;;;;;;;;;5087295;28;20231;-73
2022/04/24 04:11:12;;;;;;;1999.90;999.90;;;;;;;;;;5083092;28;20267;-73
2022/04/24 04:13:41;;;;;;;1999.90;999.90;;;;;;;;;;5090182;28;20230;-73
2022/04/24 04:16:08;;;;;;;1999.90;999.90;;;;;;;;;;5084237;28;21043;-73
2022/04/24 04:18:36;;;;;;;1999.90;999.90;;;;;;;;;;5087197;28;20257;-73
2022/04/24 04:21:03;;;;;;;1999.90;999.90;;;;;;;;;;5087445;28;20347;-73
2022/04/24 04:23:31;;;;;;;1999.90;999.90;;;;;;;;;;5085231;28;20788;-72
2022/04/24 04:25:59;;;;;;;1999.90;999.90;;;;;;;;;;5079602;28;20350;-73
2022/04/24 04:28:26;;;;;;;1999.90;999.90;;;;;;;;;;5086968;28;20288;-72
2022/04/24 04:30:56;;;;;;;1999.90;999.90;;;;;;;;;;5088561;28;20227;-75
2022/04/24 04:33:23;;;;;;;1999.90;999.90;;;;;;;;;;5090322;28;20792;-72
2022/04/24 04:35:51;;;;;;;1999.90;999.90;;;;;;;;;;5087639;28;20709;-72
2022/04/24 04:38:19;;;;;;;1999.90;999.90;;;;;;;;;;5102699;27;20281;-73
2022/04/24 04:40:46;;;;;;;1999.90;999.90;;;;;;;;;;5082208;28;20327;-73
2022/04/24 04:43:14;;;;;;;1999.90;999.90;;;;;;;;;;5082573;28;20249;-72
2022/04/24 04:45:42;;;;;;;1999.90;999.90;;;;;;;;;;5087179;28;20270;-74
2022/04/24 04:48:10;;;;;;;1999.90;999.90;;;;;;;;;;5078033;28;20224;-73
2022/04/24 04:50:38;;;;;;;1999.90;999.90;;;;;;;;;;5080647;28;20219;-73
2022/04/24 04:53:06;;;;;;;1999.90;999.90;;;;;;;;;;5074628;28;20297;-73
2022/04/24 04:55:33;;;;;;;1999.90;999.90;;;;;;;;;;5078177;28;20318;-73
2022/04/24 04:58:01;;;;;;;1999.90;999.90;;;;;;;;;;5072035;28;21043;-73
2022/04/24 05:00:28;;;;;;;1999.90;999.90;;;;;;;;;;5082335;28;20321;-73
2022/04/24 05:02:56;;;;;;;1999.90;999.90;;;;;;;;;;5076457;28;20223;-74
2022/04/24 05:05:25;;;;;;;1999.90;999.90;;;;;;;;;;5076886;28;20262;-73
2022/04/24 05:07:52;;;;;;;1999.90;999.90;;;;;;;;;;5075138;28;20280;-73
2022/04/24 05:10:20;;;;;;;1999.90;999.90;;;;;;;;;;5081174;28;20263;-72
2022/04/24 05:12:47;;;;;;;1999.90;999.90;;;;;;;;;;5082660;28;20259;-74
2022/04/24 05:15:16;;;;;;;1999.90;999.90;;;;;;;;;;5078107;28;20254;-72
2022/04/24 05:17:44;;;;;;;1999.90;999.90;;;;;;;;;;5078035;28;20298;-73
2022/04/24 05:20:13;;;;;;;1999.90;999.90;;;;;;;;;;5081004;28;20317;-73
2022/04/24 05:22:42;;;;;;;1999.90;999.90;;;;;;;;;;5081922;28;20331;-72
2022/04/24 05:25:11;;;;;;;1999.90;999.90;;;;;;;;;;5066338;28;21563;-75
2022/04/24 05:27:38;;;;;;;1999.90;999.90;;;;;;;;;;5067793;28;20681;-73
2022/04/24 05:30:07;;;;;;;1999.90;999.90;;;;;;;;;;5067014;28;20288;-73
2022/04/24 05:32:42;;;;;;;1999.90;999.90;;;;;;;;;;5071819;28;20282;-73
2022/04/24 05:35:11;;;;;;;1999.90;999.90;;;;;;;;;;5099740;27;20231;-73
2022/04/24 05:37:40;;;;;;;1999.90;999.90;;;;;;;;;;5100825;27;20229;-72
2022/04/24 05:40:10;;;;;;;1999.90;999.90;;;;;;;;;;5070020;28;20254;-71
2022/04/24 05:42:44;;;;;;;1999.90;999.90;;;;;;;;;;5084895;27;20792;-73
2022/04/24 05:45:14;;;;;;;1999.90;999.90;;;;;;;;;;5048880;28;20432;-73
2022/04/24 05:47:43;;;;;;;1999.90;999.90;;;;;;;;;;5068743;28;20277;-73
2022/04/24 05:50:10;;;;;;;1999.90;999.90;;;;;;;;;;5068647;28;20232;-73
2022/04/24 05:52:38;;;;;;;1999.90;999.90;;;;;;;;;;5068998;28;20236;-73
2022/04/24 05:55:06;;;;;;;1999.90;999.90;;;;;;;;;;5068028;28;20227;-74
2022/04/24 05:57:35;;;;;;;1999.90;999.90;;;;;;;;;;5099251;27;21080;-73
2022/04/24 06:00:04;;;;;;;1999.90;999.90;;;;;;;;;;5068548;28;20227;-73
2022/04/24 06:02:39;;;;;;;1999.90;999.90;;;;;;;;;;5069425;28;20230;-73
2022/04/24 06:05:07;;;;;;;1999.90;999.90;;;;;;;;;;5068500;28;20761;-72
2022/04/24 06:07:35;;;;;;;1999.90;999.90;;;;;;;;;;5066801;28;20236;-72
2022/04/24 06:10:03;;;;;;;1999.90;999.90;;;;;;;;;;5068670;28;20318;-73
2022/04/24 06:12:32;;;;;;;1999.90;999.90;;;;;;;;;;5082158;28;20234;-72
2022/04/24 06:15:04;;;;;;;1999.90;999.90;;;;;;;;;;5080264;28;20251;-73
2022/04/24 06:17:32;;;;;;;1999.90;999.90;;;;;;;;;;5080299;28;20337;-73
2022/04/24 06:19:59;;;;;;;1999.90;999.90;;;;;;;;;;5109423;27;20231;-73
2022/04/24 06:22:27;;;;;;;1999.90;999.90;;;;;;;;;;5080628;28;20318;-73
2022/04/24 06:24:54;;;;;;;1999.90;999.90;;;;;;;;;;5080209;28;20711;-73
2022/04/24 06:27:22;;;;;;;1999.90;999.90;;;;;;;;;;5082822;28;20235;-74
2022/04/24 06:29:49;;;;;;;1999.90;999.90;;;;;;;;;;5106811;27;20688;-74
2022/04/24 06:32:19;;;;;;;1999.90;999.90;;;;;;;;;;5108081;27;20289;-71
2022/04/24 06:34:46;;;;;;;1999.90;999.90;;;;;;;;;;5079132;28;20226;-75
2022/04/24 06:37:14;;;;;;;1999.90;999.90;;;;;;;;;;5078062;28;20231;-73
2022/04/24 06:39:42;;;;;;;1999.90;999.90;;;;;;;;;;5072215;28;20238;-72
2022/04/24 06:42:11;;;;;;;1999.90;999.90;;;;;;;;;;5055687;28;20231;-73
2022/04/24 06:44:38;;;;;;;1999.90;999.90;;;;;;;;;;5101026;27;20232;-71
2022/04/24 06:47:06;;;;;;;1999.90;999.90;;;;;;;;;;5073092;28;20918;-72
2022/04/24 06:49:35;;;;;;;1999.90;999.90;;;;;;;;;;5071606;28;20256;-73
2022/04/24 06:52:03;;;;;;;1999.90;999.90;;;;;;;;;;5068677;28;20900;-73
2022/04/24 06:54:31;;;;;;;1999.90;999.90;;;;;;;;;;5104879;27;20223;-72
2022/04/24 06:57:01;;;;;;;1999.90;999.90;;;;;;;;;;5072841;28;20450;-72
2022/04/24 06:59:29;;;;;;;1999.90;999.90;;;;;;;;;;5075656;28;20223;-75
2022/04/24 07:01:56;;;;;;;1999.90;999.90;;;;;;;;;;5073446;28;20228;-75
2022/04/24 07:04:24;;;;;;;1999.90;999.90;;;;;;;;;;5079500;28;21018;-70
2022/04/24 07:06:53;;;;;;;1999.90;999.90;;;;;;;;;;5076461;28;20271;-71
2022/04/24 07:09:21;;;;;;;1999.90;999.90;;;;;;;;;;5084526;27;20235;-73
2022/04/24 07:11:48;;;;;;;1999.90;999.90;;;;;;;;;;5103237;27;20724;-71
2022/04/24 07:14:16;;;;;;;1999.90;999.90;;;;;;;;;;5079533;28;20238;-70
2022/04/24 07:16:43;;;;;;;1999.90;999.90;;;;;;;;;;5076859;28;20259;-70
2022/04/24 07:19:11;;;;;;;1999.90;999.90;;;;;;;;;;5080920;28;20281;-70
2022/04/24 07:21:39;;;;;;;1999.90;999.90;;;;;;;;;;5086252;28;20231;-70
2022/04/24 07:24:08;;;;;;;1999.90;999.90;;;;;;;;;;5121374;27;20289;-70
2022/04/24 07:26:35;;;;;;;1999.90;999.90;;;;;;;;;;5106269;27;20227;-71
2022/04/24 07:29:03;;;;;;;1999.90;999.90;;;;;;;;;;5086758;28;20277;-70
2022/04/24 07:31:31;;;;;;;1999.90;999.90;;;;;;;;;;5081619;28;20606;-70
2022/04/24 07:33:58;;;;;;;1999.90;999.90;;;;;;;;;;5094464;28;20238;-72
2022/04/24 07:36:26;;;;;;;1999.90;999.90;;;;;;;;;;5089213;28;20772;-72
2022/04/24 07:38:54;;;;;;;1999.90;999.90;;;;;;;;;;5117139;27;20223;-71
2022/04/24 07:41:23;;;;;;;1999.90;999.90;;;;;;;;;;5112975;27;20237;-72
2022/04/24 07:43:50;;;;;;;1999.90;999.90;;;;;;;;;;5085354;28;20791;-71
2022/04/24 07:46:18;;;;;;;1999.90;999.90;;;;;;;;;;5086086;28;20320;-72
2022/04/24 07:48:45;;;;;;;1999.90;999.90;;;;;;;;;;5121739;27;20243;-72
2022/04/24 07:51:13;;;;;;;1999.90;999.90;;;;;;;;;;5083802;28;20333;-72
2022/04/24 07:53:42;;;;;;;1999.90;999.90;;;;;;;;;;5085202;28;20261;-71
2022/04/24 07:56:10;;;;;;;1999.90;999.90;;;;;;;;;;5088438;28;20231;-72
2022/04/24 07:58:44;;;;;;;1999.90;999.90;;;;;;;;;;5113127;27;20781;-72
2022/04/24 08:01:16;;;;;;;1999.90;999.90;;;;;;;;;;5081352;28;20224;-72
2022/04/24 08:03:44;;;;;;;1999.90;999.90;;;;;;;;;;5074591;28;20783;-74
2022/04/24 08:06:12;;;;;;;1999.90;999.90;;;;;;;;;;5088552;28;20231;-72
2022/04/24 08:08:40;;;;;;;1999.90;999.90;;;;;;;;;;5084599;28;20235;-71
2022/04/24 08:11:07;;;;;;;1999.90;999.90;;;;;;;;;;5086367;28;20310;-71
2022/04/24 08:13:35;;;;;;;1999.90;999.90;;;;;;;;;;5085047;28;20313;-72
2022/04/24 08:16:04;;;;;;;1999.90;999.90;;;;;;;;;;5086277;28;20227;-72
2022/04/24 08:18:32;;;;;;;1999.90;999.90;;;;;;;;;;5092753;28;21243;-72
2022/04/24 08:20:59;;;;;;;1999.90;999.90;;;;;;;;;;5078705;28;20230;-71
2022/04/24 08:23:27;;;;;;;1999.90;999.90;;;;;;;;;;5078178;28;20784;-71
2022/04/24 08:25:55;;;;;;;1999.90;999.90;;;;;;;;;;5105495;27;20815;-72
2022/04/24 08:28:25;;;;;;;1999.90;999.90;;;;;;;;;;5074915;28;20305;-72
2022/04/24 08:30:53;;;;;;;1999.90;999.90;;;;;;;;;;5075357;28;20240;-72
2022/04/24 08:33:22;;;;;;;1999.90;999.90;;;;;;;;;;5081533;28;20235;-71
2022/04/24 08:35:50;;;;;;;1999.90;999.90;;;;;;;;;;5071744;28;20330;-72
2022/04/24 08:38:18;;;;;;;1999.90;999.90;;;;;;;;;;5076190;28;20223;-72
2022/04/24 08:40:46;;;;;;;1999.90;999.90;;;;;;;;;;5108413;27;20247;-72
2022/04/24 08:43:13;;;;;;;1999.90;999.90;;;;;;;;;;5071531;28;20746;-72
2022/04/24 08:45:42;;;;;;;1999.90;999.90;;;;;;;;;;5110890;27;20231;-72
2022/04/24 08:48:09;;;;;;;1999.90;999.90;;;;;;;;;;5095853;27;20230;-72
2022/04/24 08:50:39;;;;;;;1999.90;999.90;;;;;;;;;;5068585;28;20232;-72
2022/04/24 08:53:09;;;;;;;1999.90;999.90;;;;;;;;;;5076792;28;20234;-72
2022/04/24 08:55:36;;;;;;;1999.90;999.90;;;;;;;;;;5069884;28;20717;-71
2022/04/24 08:58:04;;;;;;;1999.90;999.90;;;;;;;;;;5114394;27;20230;-73
2022/04/24 09:00:33;;;;;;;1999.90;999.90;;;;;;;;;;5085434;28;20261;-73
2022/04/24 09:03:01;;;;;;;1999.90;999.90;;;;;;;;;;5081935;28;20310;-72
2022/04/24 09:05:30;;;;;;;1999.90;999.90;;;;;;;;;;5081291;28;20250;-73
2022/04/24 09:08:07;;;;;;;1999.90;999.90;;;;;;;;;;5077290;28;20251;-72
2022/04/24 09:10:55;;;;;;;1999.90;999.90;;;;;;;;;;5079082;28;20223;-73
2022/04/24 09:13:27;;;;;;;1999.90;999.90;;;;;;;;;;5084433;28;20219;-73
2022/04/24 09:15:55;;;;;;;1999.90;999.90;;;;;;;;;;5085412;28;20283;-71
2022/04/24 09:18:22;;;;;;;1999.90;999.90;;;;;;;;;;5075232;28;20222;-71
2022/04/24 09:20:54;;;;;;;1999.90;999.90;;;;;;;;;;5077192;28;20321;-72
2022/04/24 09:23:33;;;;;;;1999.90;999.90;;;;;;;;;;5109350;27;20231;-73
2022/04/24 09:26:01;;;;;;;1999.90;999.90;;;;;;;;;;5071697;28;20333;-72
2022/04/24 09:28:36;;;;;;;1999.90;999.90;;;;;;;;;;5083108;28;20330;-73
2022/04/24 09:31:03;;;;;;;1999.90;999.90;;;;;;;;;;5078752;28;20322;-72
2022/04/24 09:33:36;;;;;;;1999.90;999.90;;;;;;;;;;5080548;28;20258;-75
2022/04/24 09:36:03;;;;;;;1999.90;999.90;;;;;;;;;;5077549;28;21046;-72
2022/04/24 09:38:39;;;;;;;1999.90;999.90;;;;;;;;;;5080154;28;20341;-74
2022/04/24 09:41:14;;;;;;;1999.90;999.90;;;;;;;;;;5095381;27;20280;-72
2022/04/24 09:43:42;;;;;;;1999.90;999.90;;;;;;;;;;5084545;28;20226;-72
2022/04/24 09:46:09;;;;;;;1999.90;999.90;;;;;;;;;;5081281;28;20293;-72
2022/04/24 09:48:37;;;;;;;1999.90;999.90;;;;;;;;;;5065956;28;20810;-72
2022/04/24 09:51:05;;;;;;;1999.90;999.90;;;;;;;;;;5077596;28;20317;-72
2022/04/24 09:53:36;;;;;;;1999.90;999.90;;;;;;;;;;5074912;28;20258;-72
2022/04/24 09:56:05;;;;;;;1999.90;999.90;;;;;;;;;;5083775;28;20244;-72
2022/04/24 09:58:33;;;;;;;1999.90;999.90;;;;;;;;;;5075168;28;20227;-73
2022/04/24 10:01:00;;;;;;;1999.90;999.90;;;;;;;;;;5082915;28;20309;-72
2022/04/24 10:03:28;;;;;;;1999.90;999.90;;;;;;;;;;5076536;28;20265;-72
2022/04/24 10:05:56;;;;;;;1999.90;999.90;;;;;;;;;;5083230;28;20216;-72
2022/04/24 10:08:24;;;;;;;1999.90;999.90;;;;;;;;;;5079000;28;20243;-72
2022/04/24 10:10:53;;;;;;;1999.90;999.90;;;;;;;;;;5114033;27;20258;-72
2022/04/24 10:13:23;;;;;;;1999.90;999.90;;;;;;;;;;5074947;28;20243;-71
2022/04/24 10:15:56;;;;;;;1999.90;999.90;;;;;;;;;;5076486;28;20231;-72
2022/04/24 10:18:33;;;;;;;1999.90;999.90;;;;;;;;;;5075994;28;20258;-72
2022/04/24 10:21:11;;;;;;;1999.90;999.90;;;;;;;;;;5075295;28;20226;-72
2022/04/24 10:23:39;;;;;;;1999.90;999.90;;;;;;;;;;5075441;28;20684;-72
2022/04/24 10:26:17;;;;;;;1999.90;999.90;;;;;;;;;;5074063;28;20226;-72
2022/04/24 10:28:47;;;;;;;1999.90;999.90;;;;;;;;;;5076931;28;20292;-72
2022/04/24 10:31:16;;;;;;;1999.90;999.90;;;;;;;;;;5080937;28;20227;-72
2022/04/24 10:33:51;;;;;;;1999.90;999.90;;;;;;;;;;5077712;28;20231;-72
2022/04/24 10:36:19;;;;;;;1999.90;999.90;;;;;;;;;;5085013;28;20227;-72
2022/04/24 10:38:47;;;;;;;1999.90;999.90;;;;;;;;;;5114329;27;20690;-73
2022/04/24 10:41:17;;;;;;;1999.90;999.90;;;;;;;;;;5103477;27;20233;-73
2022/04/24 10:43:46;;;;;;;1999.90;999.90;;;;;;;;;;5104979;27;20227;-74
2022/04/24 10:46:17;;;;;;;1999.90;999.90;;;;;;;;;;5075763;28;20268;-74
2022/04/24 10:48:46;;;;;;;1999.90;999.90;;;;;;;;;;5076421;28;20299;-73
2022/04/24 10:51:15;;;;;;;1999.90;999.90;;;;;;;;;;5064544;28;21104;-73
2022/04/24 10:53:50;;;;;;;1999.90;999.90;;;;;;;;;;5072438;28;20235;-73
2022/04/24 10:56:20;;;;;;;1999.90;999.90;;;;;;;;;;5080985;28;20227;-73
2022/04/24 10:58:49;;;;;;;1999.90;999.90;;;;;;;;;;5084689;28;20227;-74
2022/04/24 11:01:17;;;;;;;1999.90;999.90;;;;;;;;;;5074099;28;20231;-73
2022/04/24 11:03:46;;;;;;;1999.90;999.90;;;;;;;;;;5073716;28;20290;-72
2022/04/24 11:06:17;;;;;;;1999.90;999.90;;;;;;;;;;5072008;28;20232;-73
2022/04/24 11:08:45;;;;;;;1999.90;999.90;;;;;;;;;;5082332;28;20239;-72
2022/04/24 11:11:14;;;;;;;1999.90;999.90;;;;;;;;;;5088084;28;20234;-72
2022/04/24 11:13:43;;;;;;;1999.90;999.90;;;;;;;;;;5085074;28;20273;-74
2022/04/24 11:16:11;;;;;;;1999.90;999.90;;;;;;;;;;5112251;27;20255;-76
2022/04/24 11:18:45;;;;;;;1999.90;999.90;;;;;;;;;;5072382;28;20224;-77
2022/04/24 11:21:16;;;;;;;1999.90;999.90;;;;;;;;;;5113675;27;20655;-77
2022/04/24 11:23:44;;;;;;;1999.90;999.90;;;;;;;;;;5087438;28;20308;-77
2022/04/24 11:26:12;;;;;;;1999.90;999.90;;;;;;;;;;5072386;28;20227;-78
2022/04/24 11:28:41;;;;;;;1999.90;999.90;;;;;;;;;;5111893;27;20864;-79
2022/04/24 11:31:17;;;;;;;1999.90;999.90;;;;;;;;;;5083369;28;20389;-77
2022/04/24 11:33:53;;;;;;;1999.90;999.90;;;;;;;;;;5083834;28;20458;-76
2022/04/24 11:36:21;;;;;;;1999.90;999.90;;;;;;;;;;5085491;27;20718;-75
2022/04/24 11:38:48;;;;;;;1999.90;999.90;;;;;;;;;;5083033;28;20227;-74
2022/04/24 11:41:16;;;;;;;1999.90;999.90;;;;;;;;;;5083360;28;20242;-74
2022/04/24 11:43:44;;;;;;;1999.90;999.90;;;;;;;;;;5069974;28;21282;-73
2022/04/24 11:51:51;;;;;;;1999.90;999.90;;;;;;;;;;5076536;28;20227;-75
2022/04/24 11:54:19;;;;;;;1999.90;999.90;;;;;;;;;;5074713;28;20670;-75
2022/04/24 11:56:49;;;;;;;1999.90;999.90;;;;;;;;;;5070256;28;20307;-75
2022/04/24 11:59:19;;;;;;;1999.90;999.90;;;;;;;;;;5072904;28;20323;-76
2022/04/24 12:01:55;;;;;;;1999.90;999.90;;;;;;;;;;5069647;28;20224;-75
2022/04/24 12:04:26;;;;;;;1999.90;999.90;;;;;;;;;;5070985;28;20317;-75
2022/04/24 12:07:00;;;;;;;1999.90;999.90;;;;;;;;;;5103762;27;20236;-73
2022/04/24 12:09:27;;;;;;;1999.90;999.90;;;;;;;;;;5098520;27;20301;-74
2022/04/24 12:12:05;;;;;;;1999.90;999.90;;;;;;;;;;5080764;28;20228;-74
2022/04/24 12:14:33;;;;;;;1999.90;999.90;;;;;;;;;;5069164;28;20231;-76
2022/04/24 12:17:05;;;;;;;1999.90;999.90;;;;;;;;;;5069039;28;20223;-77
2022/04/24 12:19:34;;;;;;;1999.90;999.90;;;;;;;;;;5066961;28;20224;-77
2022/04/24 12:22:06;;;;;;;1999.90;999.90;;;;;;;;;;5061918;28;20220;-77
2022/04/24 12:24:41;;;;;;;1999.90;999.90;;;;;;;;;;5072146;28;20231;-76
2022/04/24 12:27:13;;;;;;;1999.90;999.90;;;;;;;;;;5073412;28;20634;-74
2022/04/24 12:29:45;;;;;;;1999.90;999.90;;;;;;;;;;5068853;28;20245;-75
2022/04/24 12:32:15;;;;;;;1999.90;999.90;;;;;;;;;;5073767;28;20224;-74
2022/04/24 12:34:43;;;;;;;1999.90;999.90;;;;;;;;;;5096587;27;20228;-74
2022/04/24 12:37:11;;;;;;;1999.90;999.90;;;;;;;;;;5070983;28;20729;-74
2022/04/24 12:39:39;;;;;;;1999.90;999.90;;;;;;;;;;5106918;27;20223;-74
2022/04/24 12:42:11;;;;;;;1999.90;999.90;;;;;;;;;;5071502;28;20259;-73
2022/04/24 12:44:39;;;;;;;1999.90;999.90;;;;;;;;;;5105175;27;20230;-74
2022/04/24 12:47:08;;;;;;;1999.90;999.90;;;;;;;;;;5069678;28;20808;-74
2022/04/24 12:49:37;;;;;;;1999.90;999.90;;;;;;;;;;5069931;28;21044;-74
2022/04/24 12:52:05;;;;;;;1999.90;999.90;;;;;;;;;;5102956;27;20232;-73
2022/04/24 12:54:32;;;;;;;1999.90;999.90;;;;;;;;;;5103744;27;20232;-74
2022/04/24 12:57:00;;;;;;;1999.90;999.90;;;;;;;;;;5070357;28;20235;-74
2022/04/24 12:59:28;;;;;;;1999.90;999.90;;;;;;;;;;5103673;27;20243;-72
2022/04/24 13:01:57;;;;;;;1999.90;999.90;;;;;;;;;;5071253;28;20231;-73
2022/04/24 13:04:25;;;;;;;1999.90;999.90;;;;;;;;;;5070676;28;20324;-73
2022/04/24 13:06:55;;;;;;;1999.90;999.90;;;;;;;;;;5085584;27;20232;-73
2022/04/24 13:09:27;;;;;;;1999.90;999.90;;;;;;;;;;5071513;28;20440;-74
2022/04/24 13:11:55;;;;;;;1999.90;999.90;;;;;;;;;;5079562;28;20623;-74
2022/04/24 13:14:28;;;;;;;1999.90;999.90;;;;;;;;;;5069400;28;20223;-74
2022/04/24 13:19:42;;;;;;;1999.90;999.90;;;;;;;;;;5051113;28;20310;-72
2022/04/24 13:22:11;;;;;;;1999.90;999.90;;;;;;;;;;5069053;28;20787;-73
2022/04/24 13:24:39;;;;;;;1999.90;999.90;;;;;;;;;;5103648;27;20234;-73
2022/04/24 13:27:07;;;;;;;1999.90;999.90;;;;;;;;;;5073814;28;20315;-72
2022/04/24 13:29:35;;;;;;;1999.90;999.90;;;;;;;;;;5069902;28;20318;-72
2022/04/24 13:32:04;;;;;;;1999.90;999.90;;;;;;;;;;5068579;28;20305;-76
2022/04/24 13:34:31;;;;;;;1999.90;999.90;;;;;;;;;;5071381;28;20329;-73
2022/04/24 13:39:46;;;;;;;1999.90;999.90;;;;;;;;;;5105428;27;20219;-73
2022/04/24 13:42:14;;;;;;;1999.90;999.90;;;;;;;;;;5107280;27;20986;-71
2022/04/24 13:44:42;;;;;;;1999.90;999.90;;;;;;;;;;5066354;28;21337;-75
2022/04/24 13:47:09;;;;;;;1999.90;999.90;;;;;;;;;;5065695;28;20727;-71
2022/04/24 13:49:39;;;;;;;1999.90;999.90;;;;;;;;;;5066478;28;20267;-71
2022/04/24 13:52:07;;;;;;;1999.90;999.90;;;;;;;;;;5070321;28;20289;-72
2022/04/24 13:54:35;;;;;;;1999.90;999.90;;;;;;;;;;5066833;28;20224;-72
2022/04/24 13:57:05;;;;;;;1999.90;999.90;;;;;;;;;;5099903;27;20309;-72
2022/04/24 13:59:32;;;;;;;1999.90;999.90;;;;;;;;;;5066754;28;20224;-73
2022/04/24 14:02:01;;;;;;;1999.90;999.90;;;;;;;;;;5097831;27;20224;-72